createdAt,value
2023-02-01T06:27:29.015Z,37.80
2023-02-01T06:30:15.639Z,38.67
2023-02-01T06:33:02.457Z,38.50
2023-02-01T06:35:39.635Z,35.45
2023-02-01T06:38:11.582Z,38.50
2023-02-01T06:48:49.465Z,38.80
2023-02-01T06:52:04.461Z,38.15
2023-02-01T06:54:34.760Z,37.45
2023-02-01T06:57:17.614Z,37.13
2023-02-01T07:00:17.424Z,38.20
2023-02-01T07:03:12.734Z,36.83
2023-02-01T07:06:40.981Z,37.22
2023-02-01T07:12:39.690Z,41.80
2023-02-01T07:15:41.469Z,41.70
2023-02-01T07:25:06.514Z,44.13
2023-02-01T07:27:40.107Z,44.10
2023-02-01T07:30:09.083Z,42.85
2023-02-01T07:32:38.459Z,43.42
2023-02-01T07:35:06.494Z,44.25
2023-02-01T07:37:34.186Z,44.17
2023-02-01T07:40:01.954Z,45.25
2023-02-01T07:42:35.919Z,43.83
2023-02-01T07:45:21.890Z,43.10
2023-02-01T07:48:35.747Z,43.63
2023-02-01T07:51:52.962Z,42.92
2023-02-01T10:14:33.019Z,48.72
2023-02-01T10:17:47.581Z,46.10
2023-02-01T10:44:07.574Z,42.95
2023-02-01T11:50:50.878Z,43.97
2023-02-01T11:52:55.420Z,45.75
2023-02-01T11:55:23.266Z,44.70
2023-02-01T11:58:14.621Z,44.90
2023-02-01T12:00:53.390Z,44.45
2023-02-01T12:03:41.965Z,45.53
2023-02-01T12:06:26.510Z,45.60
2023-02-01T12:09:26.621Z,44.30
2023-02-01T12:13:05.746Z,42.25
2023-02-01T12:15:56.738Z,44.67
2023-02-01T12:18:41.293Z,45.03
2023-02-01T12:21:20.749Z,43.78
2023-02-01T12:24:01.220Z,45.78
2023-02-01T12:27:08.222Z,44.00
2023-02-01T12:29:47.714Z,43.50
2023-02-01T12:32:40.870Z,46.90
2023-02-01T12:35:30.812Z,45.38
2023-02-01T12:38:04.858Z,45.63
2023-02-01T12:41:11.991Z,44.20
2023-02-01T12:47:53.090Z,45.30
2023-02-01T12:51:22.495Z,44.70
2023-02-01T12:54:48.911Z,45.93
2023-02-01T12:58:14.068Z,46.80
2023-02-01T13:07:34.001Z,45.70
2023-02-01T13:10:44.156Z,47.55
2023-02-01T13:20:01.898Z,43.63
2023-02-01T13:23:00.787Z,45.60
2023-02-01T13:26:30.830Z,44.83
2023-02-01T13:33:52.324Z,46.92
2023-02-01T13:41:26.929Z,43.42
2023-02-01T13:44:11.486Z,45.67
2023-02-01T13:57:41.395Z,49.08
2023-02-01T14:00:35.214Z,46.55
2023-02-01T14:03:15.290Z,51.17
2023-02-01T14:05:48.820Z,48.10
2023-02-01T14:16:21.478Z,48.88
2023-02-01T14:33:36.008Z,48.45
2023-02-01T15:04:31.795Z,45.03
2023-02-01T15:07:16.150Z,43.80
2023-02-01T15:09:49.977Z,47.20
2023-02-01T15:12:23.870Z,47.33
2023-02-01T15:15:12.685Z,45.95
2023-02-01T15:17:40.735Z,48.33
2023-02-01T15:20:22.360Z,46.38
2023-02-01T15:23:03.597Z,45.78
2023-02-01T15:26:04.219Z,47.22
2023-02-01T15:29:10.193Z,46.97
2023-02-01T15:35:54.808Z,45.65
2023-02-01T15:38:31.850Z,46.25
2023-02-01T15:41:16.095Z,45.83
2023-02-01T15:44:01.097Z,47.55
2023-02-01T15:47:15.128Z,44.15
2023-02-01T15:53:19.270Z,46.65
2023-02-01T15:56:00.818Z,47.63
2023-02-01T15:58:32.065Z,46.83
2023-02-01T16:01:03.966Z,46.53
2023-02-01T16:03:42.864Z,46.63
2023-02-01T16:06:29.872Z,48.13
2023-02-01T16:09:19.286Z,48.22
2023-02-01T16:12:23.598Z,49.13
2023-02-01T16:15:04.121Z,46.70
2023-02-01T16:17:32.725Z,48.47
2023-02-01T16:20:07.031Z,47.95
2023-02-01T16:22:37.792Z,48.83
2023-02-01T16:25:05.851Z,47.70
2023-02-01T16:27:34.446Z,45.28
2023-02-01T16:30:02.009Z,45.83
2023-02-01T16:32:30.774Z,45.55
2023-02-01T16:34:58.751Z,45.08
2023-02-01T16:37:28.494Z,44.67
2023-02-01T16:39:56.202Z,43.17
2023-02-01T16:42:23.693Z,45.58
2023-02-01T16:44:51.217Z,46.78
2023-02-01T16:47:23.502Z,47.53
2023-02-01T16:49:52.341Z,48.67
2023-02-01T16:52:24.570Z,48.42
2023-02-01T16:54:52.426Z,53.83
2023-02-01T16:57:24.885Z,54.50
2023-02-01T16:59:52.561Z,53.88
2023-02-01T17:02:21.920Z,55.45
2023-02-01T17:04:49.945Z,54.28
2023-02-01T17:07:19.757Z,50.80
2023-02-01T17:09:48.545Z,50.17
2023-02-01T17:12:32.763Z,46.10
2023-02-01T17:15:01.073Z,43.28
2023-02-01T17:17:39.757Z,45.10
2023-02-01T17:20:07.986Z,44.88
2023-02-01T17:22:35.486Z,42.90
2023-02-01T17:25:03.080Z,42.38
2023-02-01T17:27:31.003Z,39.42
2023-02-01T17:29:58.433Z,39.42
2023-02-01T17:32:26.465Z,38.65
2023-02-01T17:34:53.963Z,40.08
2023-02-01T17:37:29.281Z,40.33
2023-02-01T17:39:58.146Z,40.45
2023-02-01T17:42:27.485Z,40.08
2023-02-01T17:45:12.533Z,39.55
2023-02-01T17:47:39.992Z,38.67
2023-02-01T17:50:08.269Z,39.75
2023-02-01T17:52:36.424Z,38.90
2023-02-01T17:55:11.047Z,39.17
2023-02-01T17:57:38.894Z,42.72
2023-02-01T18:00:07.893Z,40.50
2023-02-01T18:02:35.904Z,41.45
2023-02-01T18:05:10.306Z,40.63
2023-02-01T18:10:13.044Z,36.83
2023-02-01T18:15:35.097Z,38.90
2023-02-01T18:18:02.975Z,39.55
2023-02-01T18:20:30.784Z,37.83
2023-02-01T18:22:58.586Z,38.70
2023-02-01T18:25:38.852Z,38.80
2023-02-01T18:28:09.342Z,36.03
2023-02-01T18:30:37.254Z,37.60
2023-02-01T18:33:05.549Z,39.30
2023-02-01T18:35:34.082Z,39.38
2023-02-01T18:38:01.626Z,38.58
2023-02-01T18:40:35.577Z,37.75
2023-02-01T18:43:03.371Z,38.45
2023-02-01T18:45:42.371Z,39.15
2023-02-01T18:48:11.247Z,40.10
2023-02-01T18:50:40.918Z,42.38
2023-02-01T18:53:21.915Z,40.05
2023-02-01T18:55:49.772Z,41.50
2023-02-01T18:58:18.252Z,41.53
2023-02-01T19:00:47.008Z,39.22
2023-02-01T19:03:15.760Z,39.13
2023-02-01T19:05:43.204Z,38.95
2023-02-01T19:08:13.962Z,39.55
2023-02-01T19:10:44.727Z,38.28
2023-02-01T19:13:44.871Z,38.75
2023-02-01T19:20:22.937Z,34.92
2023-02-01T19:26:13.564Z,35.30
2023-02-01T19:28:49.559Z,35.92
2023-02-01T19:36:12.624Z,35.80
2023-02-01T20:10:59.358Z,39.47
2023-02-01T20:14:41.624Z,39.92
2023-02-01T20:26:57.227Z,37.80
2023-02-01T20:54:26.107Z,41.88
2023-02-01T21:00:59.071Z,43.90
2023-02-01T21:08:11.056Z,42.20
2023-02-01T21:14:53.535Z,40.33
2023-02-01T21:42:40.557Z,41.45
2023-02-01T21:45:09.731Z,43.88
2023-02-01T21:48:06.772Z,43.10
2023-02-01T21:51:02.042Z,41.00
2023-02-01T21:56:48.248Z,40.78
2023-02-01T22:04:13.725Z,39.65
2023-02-01T22:06:46.632Z,41.08
2023-02-01T22:12:07.241Z,40.28
2023-02-01T22:14:41.022Z,38.85
2023-02-01T22:17:22.155Z,39.78
2023-02-01T22:20:07.300Z,39.20
2023-02-01T22:23:22.930Z,39.22
2023-02-01T22:28:31.745Z,39.15
2023-02-01T22:31:05.833Z,41.53
